createdAt,value
2018-09-10T00:00:54.260Z,101352.09
2018-09-10T00:03:22.506Z,101346.70
2018-09-10T00:05:50.767Z,101348.96
2018-09-10T00:08:19.014Z,101344.63
2018-09-10T00:10:47.237Z,101344.13
2018-09-10T00:13:15.505Z,101334.69
2018-09-10T00:15:43.779Z,101336.01
2018-09-10T00:18:12.011Z,101344.75
2018-09-10T00:20:40.243Z,101347.93
2018-09-10T00:23:08.498Z,101344.94
2018-09-10T00:25:36.725Z,101347.31
2018-09-10T00:28:04.999Z,101346.88
2018-09-10T00:30:33.250Z,101349.67
2018-09-10T00:33:01.481Z,101350.42
2018-09-10T00:35:29.785Z,101346.00
2018-09-10T00:37:58.010Z,101353.77
2018-09-10T00:40:26.255Z,101361.59
2018-09-10T00:42:54.493Z,101352.91
2018-09-10T00:45:22.740Z,101354.88
2018-09-10T00:47:50.963Z,101353.56
2018-09-10T00:50:19.221Z,101352.52
2018-09-10T00:52:47.448Z,101348.69
2018-09-10T00:55:15.698Z,101351.87
2018-09-10T00:57:43.946Z,101355.88
2018-09-10T01:00:12.208Z,101351.78
2018-09-10T01:02:40.435Z,101349.06
2018-09-10T01:05:08.699Z,101349.13
2018-09-10T01:07:36.958Z,101350.28
2018-09-10T01:10:13.749Z,101343.94
2018-09-10T01:12:42.022Z,101342.19
2018-09-10T01:15:10.279Z,101343.52
2018-09-10T01:17:38.538Z,101341.70
2018-09-10T01:20:06.788Z,101334.95
2018-09-10T01:22:35.127Z,101343.88
2018-09-10T01:25:03.402Z,101338.02
2018-09-10T01:27:31.718Z,101334.19
2018-09-10T01:30:00.164Z,101334.73
2018-09-10T01:32:28.410Z,101336.20
2018-09-10T01:35:02.876Z,101342.30
2018-09-10T01:37:31.586Z,101346.55
2018-09-10T01:39:59.950Z,101339.94
2018-09-10T01:42:28.320Z,101344.31
2018-09-10T01:44:56.668Z,101342.87
2018-09-10T01:47:25.072Z,101340.35
2018-09-10T01:49:53.328Z,101343.77
2018-09-10T01:52:22.162Z,101343.77
2018-09-10T01:54:50.454Z,101341.84
2018-09-10T01:57:18.734Z,101339.94
2018-09-10T01:59:46.979Z,101348.39
2018-09-10T02:02:15.242Z,101343.02
2018-09-10T02:04:43.483Z,101346.06
2018-09-10T02:07:11.751Z,101342.34
2018-09-10T02:09:39.989Z,101347.38
2018-09-10T02:12:12.416Z,101348.91
2018-09-10T02:14:40.641Z,101339.70
2018-09-10T02:17:08.977Z,101343.91
2018-09-10T02:19:37.168Z,101343.70
2018-09-10T02:22:05.419Z,101340.31
2018-09-10T02:24:33.751Z,101333.70
2018-09-10T02:27:02.018Z,101322.95
2018-09-10T02:29:30.250Z,101327.50
2018-09-10T02:31:58.481Z,101331.89
2018-09-10T02:34:26.737Z,101332.19
2018-09-10T02:36:54.991Z,101332.37
2018-09-10T02:39:23.227Z,101322.19
2018-09-10T02:41:51.494Z,101328.73
2018-09-10T02:44:19.741Z,101330.70
2018-09-10T02:46:47.986Z,101330.62
2018-09-10T02:49:16.257Z,101327.58
2018-09-10T02:51:44.491Z,101324.77
2018-09-10T02:54:12.711Z,101363.19
2018-09-10T02:56:40.970Z,101376.51
2018-09-10T02:59:09.188Z,101357.02
2018-09-10T03:01:37.417Z,101378.14
2018-09-10T03:04:05.706Z,101376.64
2018-09-10T03:06:33.963Z,101363.08
2018-09-10T03:09:02.217Z,101367.24
2018-09-10T03:11:30.481Z,101376.30
2018-09-10T03:13:58.705Z,101397.37
2018-09-10T03:16:26.947Z,101373.13
2018-09-10T03:18:55.211Z,101374.77
2018-09-10T03:21:23.428Z,101376.77
2018-09-10T03:23:51.713Z,101371.77
2018-09-10T03:26:20.036Z,101377.72
2018-09-10T03:28:48.266Z,101365.91
2018-09-10T03:31:22.701Z,101362.89
2018-09-10T03:33:50.967Z,101372.58
2018-09-10T03:36:19.314Z,101377.50
2018-09-10T03:38:47.583Z,101373.47
2018-09-10T03:41:15.824Z,101367.14
2018-09-10T03:43:44.100Z,101368.63
2018-09-10T03:46:12.363Z,101372.36
2018-09-10T03:48:40.592Z,101371.75
2018-09-10T03:51:08.832Z,101366.08
2018-09-10T03:53:37.070Z,101372.52
2018-09-10T03:56:05.418Z,101364.77
2018-09-10T03:58:33.677Z,101359.13
2018-09-10T04:01:01.947Z,101367.83
2018-09-10T04:03:30.191Z,101366.00
2018-09-10T04:05:58.414Z,101367.83
2018-09-10T04:08:26.686Z,101370.40
2018-09-10T04:10:54.940Z,101374.46
2018-09-10T04:13:23.197Z,101374.77
2018-09-10T04:15:51.498Z,101378.47
2018-09-10T04:18:19.720Z,101371.45
2018-09-10T04:20:47.952Z,101368.07
2018-09-10T04:23:16.170Z,101364.27
2018-09-10T04:25:44.422Z,101372.69
2018-09-10T04:28:12.654Z,101378.94
2018-09-10T04:30:40.929Z,101393.70
2018-09-10T04:33:09.158Z,101400.58
2018-09-10T04:35:37.395Z,101411.41
2018-09-10T04:38:05.654Z,101418.50
2018-09-10T04:40:33.882Z,101413.86
2018-09-10T04:43:02.127Z,101405.90
2018-09-10T04:45:30.379Z,101414.53
2018-09-10T04:47:58.630Z,101420.35
2018-09-10T04:50:26.869Z,101421.62
2018-09-10T04:52:55.124Z,101421.69
2018-09-10T04:55:23.357Z,101417.98
2018-09-10T04:57:51.642Z,101416.67
2018-09-10T05:00:19.977Z,101421.98
2018-09-10T05:02:48.229Z,101428.30
2018-09-10T05:05:16.448Z,101425.92
2018-09-10T05:07:44.701Z,101436.47
2018-09-10T05:10:12.943Z,101446.14
2018-09-10T05:12:41.248Z,101432.79
2018-09-10T05:15:09.545Z,101430.31
2018-09-10T05:17:37.773Z,101437.53
2018-09-10T05:20:06.080Z,101439.39
2018-09-10T05:22:34.298Z,101437.77
2018-09-10T05:25:02.674Z,101448.39
2018-09-10T05:27:30.926Z,101453.97
2018-09-10T05:29:59.156Z,101455.98
2018-09-10T05:32:27.415Z,101451.58
2018-09-10T05:34:55.650Z,101461.77
2018-09-10T05:37:23.879Z,101469.84
2018-09-10T05:39:52.163Z,101467.73
2018-09-10T05:42:20.427Z,101467.41
2018-09-10T05:44:48.842Z,101467.55
2018-09-10T05:47:17.103Z,101467.14
2018-09-10T05:49:45.372Z,101463.97
2018-09-10T05:52:13.611Z,101464.43
2018-09-10T05:54:41.840Z,101470.26
2018-09-10T05:57:10.098Z,101484.77
2018-09-10T05:59:38.422Z,101488.30
2018-09-10T06:02:06.645Z,101487.52
2018-09-10T06:04:34.879Z,101486.95
2018-09-10T06:07:03.101Z,101485.48
2018-09-10T06:09:31.343Z,101483.45
2018-09-10T06:11:59.575Z,101485.92
2018-09-10T06:14:27.811Z,101494.66
2018-09-10T06:16:56.042Z,101483.88
2018-09-10T06:19:24.255Z,101484.95
2018-09-10T06:21:52.516Z,101495.84
2018-09-10T06:24:20.721Z,101494.52
2018-09-10T06:26:48.971Z,101487.58
2018-09-10T06:29:17.242Z,101486.89
2018-09-10T06:31:45.445Z,101477.66
2018-09-10T06:34:13.759Z,101473.67
2018-09-10T06:36:42.107Z,101479.52
2018-09-10T06:39:11.854Z,101484.77
2018-09-10T06:41:40.130Z,101485.98
2018-09-10T06:44:08.585Z,101491.51
2018-09-10T06:46:36.799Z,101502.23
2018-09-10T06:49:05.174Z,101507.81
2018-09-10T06:51:33.385Z,101509.01
2018-09-10T06:54:01.618Z,101513.34
2018-09-10T06:56:29.890Z,101512.78
2018-09-10T06:58:58.114Z,101504.30
2018-09-10T07:01:26.338Z,101514.43
2018-09-10T07:03:54.596Z,101521.21
2018-09-10T07:06:22.852Z,101515.45
2018-09-10T07:08:51.061Z,101511.59
2018-09-10T07:11:19.310Z,101502.08
2018-09-10T07:13:47.559Z,101516.22
2018-09-10T07:16:15.793Z,101511.48
2018-09-10T07:18:44.237Z,101509.66
2018-09-10T07:21:12.386Z,101499.16
2018-09-10T07:23:40.598Z,101503.36
2018-09-10T07:26:08.862Z,101505.70
2018-09-10T07:28:37.098Z,101506.33
2018-09-10T07:31:05.362Z,101508.78
2018-09-10T07:33:33.590Z,101497.32
2018-09-10T07:36:01.810Z,101496.22
2018-09-10T07:38:30.038Z,101508.27
2018-09-10T07:40:58.302Z,101506.25
2018-09-10T07:43:26.534Z,101499.55
2018-09-10T07:45:54.830Z,101497.52
2018-09-10T07:48:23.068Z,101495.55
2018-09-10T07:50:51.276Z,101490.81
2018-09-10T07:53:19.514Z,101493.78
2018-09-10T07:55:47.746Z,101492.34
2018-09-10T07:58:15.990Z,101489.12
2018-09-10T08:00:44.247Z,101491.76
2018-09-10T08:03:12.470Z,101494.20
2018-09-10T08:05:40.711Z,101500.43
2018-09-10T08:08:08.969Z,101498.67
2018-09-10T08:10:37.222Z,101487.90
2018-09-10T08:13:05.474Z,101485.79
2018-09-10T08:15:33.715Z,101480.34
2018-09-10T08:18:01.958Z,101479.89
2018-09-10T08:20:30.182Z,101467.51
2018-09-10T08:22:58.414Z,101463.92
2018-09-10T08:25:26.646Z,101474.78
2018-09-10T08:27:54.873Z,101475.66
2018-09-10T08:30:23.125Z,101482.93
2018-09-10T08:32:51.374Z,101498.64
2018-09-10T08:35:19.615Z,101497.95
2018-09-10T08:37:47.881Z,101504.47
2018-09-10T08:40:16.135Z,101511.11
2018-09-10T08:42:44.402Z,101522.49
2018-09-10T08:45:12.634Z,101531.91
2018-09-10T08:47:40.883Z,101533.27
2018-09-10T08:50:09.763Z,101538.52
2018-09-10T08:52:38.036Z,101547.05
2018-09-10T08:55:06.381Z,101545.30
2018-09-10T08:57:34.542Z,101532.28
2018-09-10T09:00:02.793Z,101511.75
2018-09-10T09:02:31.022Z,101501.13
2018-09-10T09:04:59.603Z,101503.23
2018-09-10T09:07:27.836Z,101495.27
2018-09-10T09:09:56.086Z,101486.10
2018-09-10T09:12:24.289Z,101484.59
2018-09-10T09:14:52.506Z,101483.81
2018-09-10T09:17:20.802Z,101481.31
2018-09-10T09:19:48.988Z,101480.98
2018-09-10T09:22:17.219Z,101483.12
2018-09-10T09:24:46.158Z,101493.73
2018-09-10T09:27:14.398Z,101496.73
2018-09-10T09:29:42.616Z,101506.50
2018-09-10T09:32:10.872Z,101509.33
2018-09-10T09:34:44.431Z,101496.47
2018-09-10T09:37:17.907Z,101494.94
2018-09-10T09:40:49.952Z,101494.02
2018-09-10T09:43:23.721Z,101500.75
2018-09-10T09:45:57.190Z,101507.89
2018-09-10T09:48:25.459Z,101499.05
2018-09-10T09:50:53.687Z,101491.64
2018-09-10T09:53:21.906Z,101494.87
2018-09-10T09:55:50.153Z,101493.37
2018-09-10T09:58:18.401Z,101487.37
2018-09-10T10:00:56.439Z,101497.40
2018-09-10T10:03:29.977Z,101494.92
2018-09-10T10:05:58.232Z,101491.98
2018-09-10T10:08:26.489Z,101494.87
2018-09-10T10:10:54.716Z,101486.88
2018-09-10T10:13:23.299Z,101493.79
2018-09-10T10:15:51.526Z,101488.64
2018-09-10T10:18:19.744Z,101490.80
2018-09-10T10:20:48.007Z,101490.84
2018-09-10T10:23:16.234Z,101485.14
2018-09-10T10:25:44.477Z,101482.34
2018-09-10T10:28:12.776Z,101479.38
2018-09-10T10:30:40.970Z,101480.20
2018-09-10T10:33:09.190Z,101479.05
2018-09-10T10:35:37.489Z,101465.34
2018-09-10T10:38:06.084Z,101466.31
2018-09-10T10:40:34.323Z,101470.62
2018-09-10T10:43:02.557Z,101482.33
2018-09-10T10:45:30.785Z,101479.59
2018-09-10T10:47:59.075Z,101472.16
2018-09-10T10:50:27.334Z,101467.84
2018-09-10T10:52:55.571Z,101464.98
2018-09-10T10:55:23.814Z,101471.75
2018-09-10T10:57:52.058Z,101466.44
2018-09-10T11:00:20.629Z,101468.05
2018-09-10T11:02:48.898Z,101476.56
2018-09-10T11:05:17.146Z,101471.12
2018-09-10T11:07:45.385Z,101473.30
2018-09-10T11:10:13.606Z,101473.24
2018-09-10T11:12:41.862Z,101469.52
2018-09-10T11:15:10.091Z,101471.82
2018-09-10T11:17:38.327Z,101470.70
2018-09-10T11:20:07.162Z,101481.05
2018-09-10T11:22:35.406Z,101482.31
2018-09-10T11:25:03.733Z,101489.50
2018-09-10T11:27:32.046Z,101485.85
2018-09-10T11:30:00.234Z,101482.13
2018-09-10T11:32:28.602Z,101470.80
2018-09-10T11:34:57.312Z,101476.96
2018-09-10T11:37:25.656Z,101473.52
2018-09-10T11:39:53.922Z,101475.23
2018-09-10T11:42:22.185Z,101480.53
2018-09-10T11:44:50.422Z,101474.11
2018-09-10T11:47:18.651Z,101474.01
2018-09-10T11:49:46.907Z,101466.52
2018-09-10T11:52:15.152Z,101465.23
2018-09-10T11:54:43.402Z,101454.17
2018-09-10T11:57:11.652Z,101448.59
2018-09-10T11:59:39.903Z,101449.65
2018-09-10T12:02:09.047Z,101452.12
2018-09-10T12:04:37.571Z,101443.56
2018-09-10T12:07:06.014Z,101442.19
2018-09-10T12:09:34.240Z,101432.97
2018-09-10T12:12:02.561Z,101431.14
2018-09-10T12:14:30.811Z,101426.47
2018-09-10T12:16:59.044Z,101431.08
2018-09-10T12:19:27.331Z,101424.25
2018-09-10T12:21:55.574Z,101424.11
2018-09-10T12:24:23.852Z,101427.71
2018-09-10T12:26:52.123Z,101432.98
2018-09-10T12:29:20.411Z,101435.94
2018-09-10T12:31:48.626Z,101437.70
2018-09-10T12:34:16.866Z,101424.39
2018-09-10T12:36:45.131Z,101423.29
2018-09-10T12:39:13.398Z,101433.13
2018-09-10T12:41:42.034Z,101443.77
2018-09-10T12:44:10.252Z,101447.75
2018-09-10T12:46:38.558Z,101439.47
2018-09-10T12:49:06.763Z,101448.99
2018-09-10T12:51:35.007Z,101446.94
2018-09-10T12:54:03.234Z,101443.14
2018-09-10T12:56:31.494Z,101442.67
2018-09-10T12:58:59.775Z,101447.69
2018-09-10T13:01:28.000Z,101458.80
2018-09-10T13:03:56.267Z,101470.05
2018-09-10T13:06:24.495Z,101480.30
2018-09-10T13:08:52.727Z,101483.45
2018-09-10T13:11:20.990Z,101492.73
2018-09-10T13:13:49.282Z,101488.23
2018-09-10T13:16:17.608Z,101491.95
2018-09-10T13:18:46.283Z,101491.37
2018-09-10T13:21:14.549Z,101489.27
2018-09-10T13:23:42.787Z,101488.03
2018-09-10T13:26:11.033Z,101485.95
2018-09-10T13:28:39.300Z,101482.34
2018-09-10T13:31:07.564Z,101483.68
2018-09-10T13:33:35.851Z,101481.81
2018-09-10T13:36:04.121Z,101480.36
2018-09-10T13:38:32.334Z,101487.25
2018-09-10T13:41:00.614Z,101483.21
2018-09-10T13:43:28.841Z,101482.51
2018-09-10T13:45:57.119Z,101483.58
2018-09-10T13:48:25.358Z,101490.66
2018-09-10T13:50:53.653Z,101482.85
2018-09-10T13:53:21.891Z,101473.92
2018-09-10T13:55:50.128Z,101477.91
2018-09-10T13:58:18.361Z,101468.02
2018-09-10T14:00:46.603Z,101469.89
2018-09-10T14:03:14.859Z,101464.58
2018-09-10T14:05:43.082Z,101475.09
2018-09-10T14:08:11.343Z,101469.39
2018-09-10T14:10:39.622Z,101459.94
2018-09-10T14:13:07.802Z,101467.79
2018-09-10T14:15:36.072Z,101472.44
2018-09-10T14:18:04.364Z,101470.03
2018-09-10T14:20:32.565Z,101467.35
2018-09-10T14:23:00.781Z,101469.38
2018-09-10T14:25:29.034Z,101471.19
2018-09-10T14:27:57.274Z,101465.67
2018-09-10T14:30:25.499Z,101468.47
2018-09-10T14:32:53.749Z,101467.29
2018-09-10T14:35:21.983Z,101466.73
2018-09-10T14:37:50.198Z,101462.75
2018-09-10T14:40:18.446Z,101463.19
2018-09-10T14:42:46.719Z,101473.28
2018-09-10T14:45:15.291Z,101467.55
2018-09-10T14:47:43.547Z,101467.93
2018-09-10T14:50:11.778Z,101455.70
2018-09-10T14:52:39.999Z,101456.11
2018-09-10T14:55:08.263Z,101452.23
2018-09-10T14:57:36.495Z,101448.62
2018-09-10T15:00:04.802Z,101456.05
2018-09-10T15:02:33.042Z,101448.88
2018-09-10T15:05:01.297Z,101443.66
2018-09-10T15:07:29.555Z,101450.97
2018-09-10T15:09:57.793Z,101461.41
2018-09-10T15:12:26.036Z,101467.87
2018-09-10T15:14:54.263Z,101461.84
2018-09-10T15:17:22.546Z,101466.41
2018-09-10T15:19:50.818Z,101474.83
2018-09-10T15:22:19.067Z,101485.03
2018-09-10T15:24:47.375Z,101487.69
2018-09-10T15:27:15.730Z,101477.10
2018-09-10T15:29:43.979Z,101485.23
2018-09-10T15:32:12.251Z,101494.02
2018-09-10T15:34:40.534Z,101506.02
2018-09-10T15:37:08.738Z,101506.68
2018-09-10T15:39:37.005Z,101505.48
2018-09-10T15:42:05.351Z,101503.58
2018-09-10T15:44:33.566Z,101505.85
2018-09-10T15:47:01.809Z,101510.97
2018-09-10T15:49:30.050Z,101505.36
2018-09-10T15:51:58.294Z,101504.37
2018-09-10T15:54:26.542Z,101509.41
2018-09-10T15:56:54.832Z,101515.64
2018-09-10T15:59:23.615Z,101509.06
2018-09-10T16:01:51.873Z,101515.30
2018-09-10T16:04:20.118Z,101522.94
2018-09-10T16:06:48.382Z,101524.38
2018-09-10T16:09:16.631Z,101518.51
2018-09-10T16:11:44.903Z,101511.47
2018-09-10T16:14:13.170Z,101509.52
2018-09-10T16:16:41.421Z,101503.34
2018-09-10T16:19:09.654Z,101502.89
2018-09-10T16:21:37.907Z,101504.47
2018-09-10T16:24:07.166Z,101499.06
2018-09-10T16:26:35.400Z,101505.31
2018-09-10T16:29:03.684Z,101508.33
2018-09-10T16:31:31.954Z,101511.56
2018-09-10T16:34:00.257Z,101510.73
2018-09-10T16:36:28.414Z,101523.23
2018-09-10T16:38:56.690Z,101508.21
2018-09-10T16:41:24.962Z,101503.95
2018-09-10T16:43:53.206Z,101499.51
2018-09-10T16:46:21.519Z,101511.59
2018-09-10T16:48:49.770Z,101512.63
2018-09-10T16:51:17.980Z,101507.20
2018-09-10T16:53:46.215Z,101504.56
2018-09-10T16:56:14.452Z,101503.48
2018-09-10T16:58:42.653Z,101507.55
2018-09-10T17:01:10.903Z,101508.66
2018-09-10T17:03:39.126Z,101494.22
2018-09-10T17:06:07.375Z,101494.14
2018-09-10T17:08:35.611Z,101497.86
2018-09-10T17:11:03.817Z,101492.27
2018-09-10T17:13:32.075Z,101483.50
2018-09-10T17:16:00.435Z,101488.00
2018-09-10T17:18:28.668Z,101485.93
2018-09-10T17:20:56.950Z,101489.52
2018-09-10T17:23:25.181Z,101487.33
2018-09-10T17:25:54.777Z,101486.75
2018-09-10T17:28:23.127Z,101488.32
2018-09-10T17:30:52.010Z,101485.26
2018-09-10T17:33:20.418Z,101485.80
2018-09-10T17:35:49.056Z,101489.77
2018-09-10T17:38:17.334Z,101499.03
2018-09-10T17:40:45.558Z,101494.77
2018-09-10T17:43:13.762Z,101492.69
2018-09-10T17:45:41.994Z,101499.36
2018-09-10T17:48:10.214Z,101500.16
2018-09-10T17:50:38.481Z,101505.13
2018-09-10T17:53:06.738Z,101518.17
2018-09-10T17:55:35.019Z,101519.38
2018-09-10T17:58:05.143Z,101521.52
2018-09-10T18:00:33.445Z,101515.84
2018-09-10T18:03:01.663Z,101518.70
2018-09-10T18:05:29.893Z,101528.47
2018-09-10T18:07:58.261Z,101531.34
2018-09-10T18:10:26.562Z,101531.64
2018-09-10T18:12:54.782Z,101532.80
2018-09-10T18:15:23.066Z,101545.80
2018-09-10T18:17:51.290Z,101545.70
2018-09-10T18:20:19.593Z,101552.54
2018-09-10T18:22:47.771Z,101554.35
2018-09-10T18:25:16.000Z,101557.17
2018-09-10T18:27:44.257Z,101566.67
2018-09-10T18:30:12.541Z,101562.19
2018-09-10T18:32:40.774Z,101563.20
2018-09-10T18:35:10.770Z,101570.22
2018-09-10T18:37:39.297Z,101571.08
2018-09-10T18:40:07.578Z,101578.05
2018-09-10T18:42:35.827Z,101579.27
2018-09-10T18:45:04.111Z,101575.36
2018-09-10T18:47:32.358Z,101596.67
2018-09-10T18:50:00.651Z,101589.36
2018-09-10T18:52:28.871Z,101591.06
2018-09-10T18:54:57.089Z,101596.67
2018-09-10T18:57:25.355Z,101597.86
2018-09-10T18:59:53.615Z,101606.81
2018-09-10T19:02:21.845Z,101612.00
2018-09-10T19:04:50.051Z,101618.12
2018-09-10T19:07:18.296Z,101611.44
2018-09-10T19:09:46.551Z,101615.48
2018-09-10T19:12:14.738Z,101606.36
2018-09-10T19:14:42.990Z,101606.18
2018-09-10T19:17:11.251Z,101610.95
2018-09-10T19:19:39.531Z,101597.92
2018-09-10T19:22:08.048Z,101599.91
2018-09-10T19:24:36.262Z,101600.50
2018-09-10T19:27:04.522Z,101601.34
2018-09-10T19:29:32.735Z,101606.77
2018-09-10T19:32:01.044Z,101607.61
2018-09-10T19:34:29.303Z,101601.21
2018-09-10T19:36:57.550Z,101609.55
2018-09-10T19:39:25.818Z,101606.37
2018-09-10T19:41:54.062Z,101606.20
2018-09-10T19:44:22.306Z,101596.83
2018-09-10T19:46:50.542Z,101604.72
2018-09-10T19:49:18.790Z,101601.84
2018-09-10T19:51:47.011Z,101600.80
2018-09-10T19:54:15.250Z,101597.94
2018-09-10T19:56:43.471Z,101602.79
2018-09-10T19:59:11.723Z,101605.38
2018-09-10T20:01:39.939Z,101603.52
2018-09-10T20:04:08.165Z,101596.93
2018-09-10T20:06:36.402Z,101596.06
2018-09-10T20:09:06.566Z,101592.66
2018-09-10T20:11:34.787Z,101585.02
2018-09-10T20:14:03.877Z,101580.26
2018-09-10T20:16:32.107Z,101580.81
2018-09-10T20:19:00.339Z,101578.23
2018-09-10T20:21:28.562Z,101575.73
2018-09-10T20:23:56.803Z,101575.00
2018-09-10T20:26:25.059Z,101574.48
2018-09-10T20:28:53.287Z,101568.97
2018-09-10T20:31:21.663Z,101566.22
2018-09-10T20:33:55.014Z,101570.94
2018-09-10T20:36:23.251Z,101564.45
2018-09-10T20:38:51.499Z,101557.80
2018-09-10T20:41:19.714Z,101553.03
2018-09-10T20:43:47.969Z,101561.63
2018-09-10T20:46:16.180Z,101567.80
2018-09-10T20:48:44.430Z,101569.75
2018-09-10T20:51:12.722Z,101572.09
2018-09-10T20:53:40.967Z,101577.50
2018-09-10T20:56:09.247Z,101584.47
2018-09-10T20:58:37.491Z,101580.66
2018-09-10T21:01:05.873Z,101586.55
2018-09-10T21:03:34.082Z,101584.11
2018-09-10T21:06:02.333Z,101590.77
2018-09-10T21:08:30.564Z,101593.10
2018-09-10T21:10:58.825Z,101587.44
2018-09-10T21:13:27.035Z,101598.20
2018-09-10T21:15:55.306Z,101604.64
2018-09-10T21:18:23.562Z,101603.91
2018-09-10T21:20:51.846Z,101601.84
2018-09-10T21:23:20.055Z,101611.53
2018-09-10T21:25:48.275Z,101608.22
2018-09-10T21:28:16.501Z,101610.77
2018-09-10T21:30:44.807Z,101608.16
2018-09-10T21:33:13.297Z,101611.41
2018-09-10T21:35:41.444Z,101607.84
2018-09-10T21:38:09.683Z,101612.25
2018-09-10T21:40:37.921Z,101611.18
2018-09-10T21:43:06.191Z,101613.77
2018-09-10T21:45:34.447Z,101615.55
2018-09-10T21:48:02.691Z,101614.06
2018-09-10T21:50:30.915Z,101620.33
2018-09-10T21:52:59.126Z,101616.75
2018-09-10T21:55:27.403Z,101621.34
2018-09-10T21:57:55.629Z,101628.22
2018-09-10T22:00:23.898Z,101631.42
2018-09-10T22:02:52.137Z,101633.79
2018-09-10T22:05:20.379Z,101633.22
2018-09-10T22:07:48.618Z,101628.52
2018-09-10T22:10:16.882Z,101637.03
2018-09-10T22:12:45.104Z,101628.21
2018-09-10T22:15:13.342Z,101628.28
2018-09-10T22:17:41.574Z,101633.11
2018-09-10T22:20:09.829Z,101633.53
2018-09-10T22:22:38.033Z,101620.36
2018-09-10T22:25:06.318Z,101629.11
2018-09-10T22:27:34.545Z,101637.33
2018-09-10T22:30:02.771Z,101635.00
2018-09-10T22:32:31.002Z,101644.01
2018-09-10T22:34:59.221Z,101642.03
2018-09-10T22:37:27.422Z,101642.53
2018-09-10T22:39:55.630Z,101643.02
2018-09-10T22:42:23.854Z,101640.34
2018-09-10T22:44:52.053Z,101638.16
2018-09-10T22:47:20.254Z,101642.69
2018-09-10T22:49:48.499Z,101641.80
2018-09-10T22:52:16.787Z,101647.81
2018-09-10T22:54:44.954Z,101640.45
2018-09-10T22:57:13.165Z,101641.52
2018-09-10T22:59:41.386Z,101646.69
2018-09-10T23:02:09.612Z,101641.38
2018-09-10T23:04:37.879Z,101643.41
2018-09-10T23:07:06.117Z,101641.59
2018-09-10T23:09:34.341Z,101640.42
2018-09-10T23:12:02.586Z,101630.78
2018-09-10T23:14:30.855Z,101626.85
2018-09-10T23:16:59.082Z,101630.30
2018-09-10T23:19:27.322Z,101632.25
2018-09-10T23:21:55.530Z,101637.46
2018-09-10T23:24:23.761Z,101645.04
2018-09-10T23:26:51.999Z,101637.02
2018-09-10T23:29:20.235Z,101641.72
2018-09-10T23:31:48.466Z,101637.13
2018-09-10T23:34:16.723Z,101637.73
2018-09-10T23:36:44.943Z,101640.86
2018-09-10T23:39:13.163Z,101636.78
2018-09-10T23:41:41.460Z,101635.70
2018-09-10T23:44:09.671Z,101635.37
2018-09-10T23:46:37.935Z,101645.48
2018-09-10T23:49:06.185Z,101643.64
2018-09-10T23:51:34.430Z,101642.17
2018-09-10T23:54:02.647Z,101641.02
2018-09-10T23:56:34.302Z,101642.56
2018-09-10T23:59:02.554Z,101641.25
